Time;durP1;ratioP1;P1;durP2;ratioP2;P2;SDS_P1;SDS_P2;PMS_P1;PMS_P2;Temp;Humidity;BMP_temperature;BMP_pressure;BME280_temperature;BME280_humidity;BME280_pressure;Samples;Min_cycle;Max_cycle;Signal;HPM_P1;HPM_P2
2022/05/31 00:00:13;;;;;;;3.50;2.35;;;;;;;14.24;100.00;90968.75;5071086;28;20020;-69
2022/05/31 00:02:40;;;;;;;3.63;2.67;;;;;;;14.13;100.00;90968.38;5070982;28;20035;-69
2022/05/31 00:05:05;;;;;;;4.00;2.55;;;;;;;13.87;100.00;90960.56;5070997;28;20024;-69
2022/05/31 00:07:31;;;;;;;5.82;3.08;;;;;;;13.81;100.00;90961.88;5070872;28;20468;-69
2022/05/31 00:09:56;;;;;;;4.65;2.50;;;;;;;13.79;100.00;90969.44;5052766;28;20032;-69
2022/05/31 00:12:22;;;;;;;5.22;2.38;;;;;;;13.71;100.00;90972.97;5070911;28;20028;-69
2022/05/31 00:14:48;;;;;;;3.60;2.42;;;;;;;13.67;100.00;90969.38;5070731;28;20024;-69
2022/05/31 00:17:13;;;;;;;8.68;2.58;;;;;;;13.69;100.00;90975.19;5070699;28;20418;-69
2022/05/31 00:19:39;;;;;;;3.28;2.75;;;;;;;13.61;100.00;90978.72;5070553;28;20079;-69
2022/05/31 00:22:09;;;;;;;5.22;2.60;;;;;;;13.64;100.00;90980.72;5070695;28;20031;-69
2022/05/31 00:24:36;;;;;;;5.88;3.17;;;;;;;13.65;100.00;90976.94;5070713;28;20056;-69
2022/05/31 00:27:03;;;;;;;6.75;2.42;;;;;;;13.60;100.00;90963.78;5070809;28;20027;-68
2022/05/31 00:29:29;;;;;;;3.53;2.65;;;;;;;13.79;100.00;90972.13;5070588;28;20029;-69
2022/05/31 00:31:54;;;;;;;6.22;2.83;;;;;;;13.92;100.00;90971.09;5073081;28;20035;-68
2022/05/31 00:34:20;;;;;;;3.72;2.67;;;;;;;13.89;100.00;90970.97;5075079;28;20497;-68
2022/05/31 00:36:48;;;;;;;5.30;2.60;;;;;;;13.83;100.00;90969.56;5074723;28;20033;-67
2022/05/31 00:39:14;;;;;;;2.95;2.50;;;;;;;13.80;100.00;90973.69;5074614;28;20067;-68
2022/05/31 00:41:40;;;;;;;5.22;2.50;;;;;;;13.80;100.00;90981.72;5074704;28;20521;-67
2022/05/31 00:44:09;;;;;;;6.18;2.70;;;;;;;13.68;100.00;90986.97;5074500;28;20029;-68
2022/05/31 00:47:14;;;;;;;4.93;2.83;;;;;;;13.44;100.00;90985.75;5074533;28;20458;-68
2022/05/31 00:49:44;;;;;;;6.75;3.40;;;;;;;13.29;100.00;90991.63;4973516;28;20122;-69
2022/05/31 00:52:23;;;;;;;6.22;3.08;;;;;;;13.15;100.00;90991.06;5059471;28;20044;-68
2022/05/31 00:55:06;;;;;;;5.32;3.22;;;;;;;13.15;100.00;90996.41;5074310;28;20028;-68
2022/05/31 00:57:35;;;;;;;6.15;3.97;;;;;;;12.93;100.00;90988.63;5074193;28;20021;-70
2022/05/31 01:00:10;;;;;;;4.90;2.95;;;;;;;12.76;100.00;90995.59;5052818;28;20049;-69
2022/05/31 01:02:37;;;;;;;4.32;3.08;;;;;;;12.55;100.00;90994.72;5054304;28;20033;-68
2022/05/31 01:05:05;;;;;;;5.57;3.72;;;;;;;12.52;100.00;91006.84;5054250;28;20025;-68
2022/05/31 01:07:32;;;;;;;5.75;3.38;;;;;;;12.45;100.00;91011.84;5054041;28;20054;-68
2022/05/31 01:09:58;;;;;;;6.18;3.70;;;;;;;12.47;100.00;91011.56;5054143;28;20037;-68
2022/05/31 01:12:25;;;;;;;8.98;3.97;;;;;;;12.48;100.00;91013.91;5053892;28;20039;-68
2022/05/31 01:14:52;;;;;;;6.38;3.50;;;;;;;12.56;100.00;91013.09;5052559;28;20040;-69
2022/05/31 01:17:20;;;;;;;7.95;3.80;;;;;;;12.59;100.00;91012.44;5054006;28;20028;-69
2022/05/31 01:19:56;;;;;;;6.25;3.55;;;;;;;12.62;100.00;91003.03;5053882;28;20410;-69
2022/05/31 01:22:43;;;;;;;5.38;2.83;;;;;;;12.62;100.00;91003.03;5053903;28;20025;-69
2022/05/31 01:25:23;;;;;;;7.35;3.88;;;;;;;12.44;100.00;91004.16;5053861;28;20053;-69
2022/05/31 01:28:10;;;;;;;4.95;3.30;;;;;;;12.34;100.00;91018.63;5053701;28;20115;-69
2022/05/31 01:30:42;;;;;;;4.38;3.45;;;;;;;12.30;100.00;91015.81;5053719;28;20032;-69
2022/05/31 01:33:30;;;;;;;5.70;3.85;;;;;;;12.30;100.00;91018.47;5052436;28;20060;-69
2022/05/31 01:36:07;;;;;;;4.95;3.55;;;;;;;12.38;100.00;91022.25;5052321;28;20028;-68
2022/05/31 01:38:43;;;;;;;7.63;4.07;;;;;;;12.43;100.00;91023.94;5053587;28;20021;-68
2022/05/31 01:41:21;;;;;;;5.38;4.32;;;;;;;12.41;100.00;91020.81;5053538;28;20086;-69
2022/05/31 01:43:51;;;;;;;6.50;3.72;;;;;;;12.40;100.00;91016.59;5053342;28;20036;-69
2022/05/31 01:46:26;;;;;;;6.60;3.75;;;;;;;12.40;100.00;91024.59;5052190;28;20056;-69
2022/05/31 01:48:53;;;;;;;5.40;3.63;;;;;;;12.32;100.00;91018.19;5053355;28;20059;-69
2022/05/31 01:51:20;;;;;;;6.88;3.83;;;;;;;12.34;100.00;91021.31;5053356;28;20021;-69
2022/05/31 01:53:46;;;;;;;6.47;3.90;;;;;;;12.42;100.00;91035.72;5053379;28;20025;-68
2022/05/31 01:56:13;;;;;;;8.35;4.40;;;;;;;12.44;100.00;91034.31;5053154;28;20037;-68
2022/05/31 01:58:42;;;;;;;5.35;3.85;;;;;;;12.47;100.00;91044.38;5060442;28;20131;-69
2022/05/31 02:01:09;;;;;;;6.70;4.00;;;;;;;12.41;100.00;91031.50;5073165;28;20563;-69
2022/05/31 02:03:34;;;;;;;5.13;3.53;;;;;;;12.39;100.00;91028.34;5073064;28;20067;-68
2022/05/31 02:06:00;;;;;;;6.10;3.85;;;;;;;12.41;100.00;91039.50;5073121;28;20475;-69
2022/05/31 02:08:29;;;;;;;7.40;3.50;;;;;;;12.54;100.00;91051.88;5072975;28;20032;-69
2022/05/31 02:10:56;;;;;;;4.53;3.50;;;;;;;12.58;100.00;91042.91;5073007;28;20398;-69
2022/05/31 02:13:22;;;;;;;5.18;3.55;;;;;;;12.63;100.00;91044.66;5072924;28;20032;-68
2022/05/31 02:15:47;;;;;;;3.15;2.47;;;;;;;12.67;100.00;91036.78;5054862;28;20514;-68
2022/05/31 02:18:13;;;;;;;3.42;2.75;;;;;;;12.71;100.00;91049.16;5072832;28;20025;-68
2022/05/31 02:20:39;;;;;;;4.22;2.80;;;;;;;12.77;100.00;91045.22;5072856;28;20420;-68
2022/05/31 02:23:04;;;;;;;6.53;3.10;;;;;;;12.75;100.00;91031.41;5072769;28;20032;-68
2022/05/31 02:25:30;;;;;;;5.97;4.18;;;;;;;12.83;100.00;91046.63;5072577;28;20020;-68
2022/05/31 02:27:56;;;;;;;5.07;2.78;;;;;;;12.89;100.00;91049.91;5072508;28;20069;-68
2022/05/31 02:30:22;;;;;;;3.50;2.83;;;;;;;12.86;100.00;91043.31;5072857;28;20055;-69
2022/05/31 02:32:47;;;;;;;3.65;3.08;;;;;;;12.82;100.00;91053.06;5072679;28;20094;-68
2022/05/31 02:35:14;;;;;;;5.45;3.25;;;;;;;12.83;100.00;91048.50;5072518;28;20511;-68
2022/05/31 02:37:40;;;;;;;4.05;2.78;;;;;;;12.75;100.00;91046.63;5072332;28;20437;-68
2022/05/31 02:40:06;;;;;;;4.00;2.97;;;;;;;12.63;100.00;91041.97;5072449;28;20031;-68
2022/05/31 02:42:32;;;;;;;6.90;3.28;;;;;;;12.63;100.00;91044.66;5072308;28;20395;-68
2022/05/31 02:44:58;;;;;;;4.35;3.13;;;;;;;12.56;100.00;91050.44;5054407;28;20498;-68
2022/05/31 02:47:23;;;;;;;4.85;2.90;;;;;;;12.59;100.00;91052.47;5072188;28;20118;-68
2022/05/31 02:49:49;;;;;;;5.45;2.80;;;;;;;12.68;100.00;91049.03;5072234;28;20410;-68
2022/05/31 02:52:15;;;;;;;3.22;2.78;;;;;;;12.70;100.00;91046.81;5072218;28;20070;-68
2022/05/31 02:54:42;;;;;;;7.45;3.65;;;;;;;12.66;100.00;91054.69;5071594;28;20052;-68
2022/05/31 02:57:08;;;;;;;3.60;2.85;;;;;;;12.56;100.00;91057.69;5071970;28;20024;-68
2022/05/31 02:59:33;;;;;;;4.40;2.70;;;;;;;12.57;100.00;91067.25;5071617;28;20067;-68
2022/05/31 03:01:58;;;;;;;4.10;2.97;;;;;;;12.48;100.00;91055.81;5072083;28;20120;-69
2022/05/31 03:04:25;;;;;;;2.95;2.55;;;;;;;12.48;100.00;91063.81;5071959;28;20024;-68
2022/05/31 03:06:50;;;;;;;4.90;3.30;;;;;;;12.41;100.00;91066.16;5071904;28;20486;-69
2022/05/31 03:09:16;;;;;;;4.38;2.40;;;;;;;12.38;100.00;91056.91;5071718;28;20025;-69
2022/05/31 03:11:50;;;;;;;4.13;2.85;;;;;;;12.45;100.00;91059.88;5071795;28;20054;-69
2022/05/31 03:14:24;;;;;;;4.70;3.28;;;;;;;12.39;100.00;91071.81;5071836;28;20457;-69
2022/05/31 03:16:58;;;;;;;6.95;3.90;;;;;;;12.43;100.00;91072.75;5071663;28;20028;-70
2022/05/31 03:19:29;;;;;;;5.72;3.05;;;;;;;12.51;100.00;91071.97;5071589;28;20016;-70
2022/05/31 03:22:01;;;;;;;4.25;2.67;;;;;;;12.64;100.00;91062.22;5071598;28;20035;-71
2022/05/31 03:24:40;;;;;;;4.25;3.13;;;;;;;12.77;100.00;91063.91;5071612;28;20024;-69
2022/05/31 03:27:08;;;;;;;4.05;2.47;;;;;;;12.83;100.00;91070.66;5071525;28;20024;-70
2022/05/31 03:29:42;;;;;;;2.60;2.30;;;;;;;12.88;100.00;91073.16;5071332;28;20100;-70
2022/05/31 03:32:09;;;;;;;4.30;2.90;;;;;;;12.87;100.00;91062.78;5071440;28;20024;-70
2022/05/31 03:34:36;;;;;;;3.95;2.40;;;;;;;12.97;100.00;91072.34;5071277;28;20028;-69
2022/05/31 03:37:02;;;;;;;3.45;2.90;;;;;;;12.93;100.00;91066.06;5071221;28;20068;-69
2022/05/31 03:39:27;;;;;;;6.80;3.10;;;;;;;12.85;100.00;91068.44;5071192;28;20134;-71
2022/05/31 03:41:53;;;;;;;38.13;16.63;;;;;;;12.87;100.00;91076.91;5071164;28;20478;-71
2022/05/31 03:44:18;;;;;;;8.38;4.38;;;;;;;12.94;100.00;91073.78;5071181;28;20123;-70
2022/05/31 03:46:47;;;;;;;3.72;2.53;;;;;;;12.92;100.00;91067.16;5071202;28;20029;-70
2022/05/31 03:49:13;;;;;;;4.13;2.72;;;;;;;13.03;100.00;91068.41;5070857;28;20025;-70
2022/05/31 03:51:38;;;;;;;3.50;2.50;;;;;;;13.13;100.00;91068.06;5071107;28;20480;-70
2022/05/31 03:54:04;;;;;;;4.60;2.65;;;;;;;13.32;100.00;91065.81;5071135;28;20032;-69
2022/05/31 03:56:29;;;;;;;6.57;2.72;;;;;;;13.49;100.00;91070.28;5071015;28;20028;-70
2022/05/31 03:58:55;;;;;;;3.25;2.95;;;;;;;13.70;100.00;91073.00;5069077;28;20048;-70
2022/05/31 04:01:20;;;;;;;8.13;2.90;;;;;;;13.82;100.00;91078.44;5070966;28;20032;-69
2022/05/31 04:03:46;;;;;;;5.40;3.22;;;;;;;13.96;100.00;91073.63;5070914;28;20032;-68
2022/05/31 04:06:11;;;;;;;9.63;3.50;;;;;;;14.03;100.00;91071.19;5069817;28;20024;-69
2022/05/31 04:08:36;;;;;;;4.53;2.78;;;;;;;14.20;100.00;91074.84;5070873;28;20486;-69
2022/05/31 04:11:02;;;;;;;3.50;2.85;;;;;;;14.36;100.00;91070.50;5052856;28;20482;-69
2022/05/31 04:13:28;;;;;;;5.07;2.78;;;;;;;14.45;100.00;91067.78;5070724;28;20028;-69
2022/05/31 04:16:10;;;;;;;3.60;2.53;;;;;;;14.59;100.00;91062.94;5069769;28;20559;-68
2022/05/31 04:18:37;;;;;;;4.88;2.78;;;;;;;14.76;100.00;91062.75;5070777;28;20036;-69
2022/05/31 04:21:04;;;;;;;3.92;2.78;;;;;;;14.91;100.00;91053.31;5070590;28;20029;-68
2022/05/31 04:26:14;;;;;;;5.18;3.05;;;;;;;14.99;100.00;91068.53;5070663;28;20028;-68
2022/05/31 04:28:40;;;;;;;4.20;2.45;;;;;;;15.13;100.00;91071.66;5069628;28;20430;-69
2022/05/31 04:31:06;;;;;;;3.55;2.58;;;;;;;15.10;100.00;91066.97;5069925;28;20024;-69
2022/05/31 04:33:31;;;;;;;2.50;2.30;;;;;;;15.26;100.00;91065.22;5070667;28;20025;-68
2022/05/31 04:36:01;;;;;;;6.03;3.20;;;;;;;15.42;100.00;91061.88;5052712;28;20044;-69
2022/05/31 04:38:27;;;;;;;4.78;2.58;;;;;;;15.64;100.00;91074.91;5070636;28;20103;-71
2022/05/31 04:40:53;;;;;;;4.88;2.75;;;;;;;15.70;100.00;91073.53;5070712;28;20499;-71
2022/05/31 04:43:18;;;;;;;3.30;2.65;;;;;;;15.82;100.00;91076.22;5070579;28;20077;-69
2022/05/31 04:45:43;;;;;;;2.85;2.40;;;;;;;16.02;100.00;91082.56;5070677;28;20474;-69
2022/05/31 04:48:09;;;;;;;3.30;2.60;;;;;;;16.13;100.00;91081.00;5070405;28;20418;-69
2022/05/31 04:50:35;;;;;;;5.63;3.25;;;;;;;16.19;100.00;91086.91;5070621;28;20029;-69
2022/05/31 04:53:01;;;;;;;3.67;2.40;;;;;;;16.20;100.00;91083.09;5070683;28;20028;-70
2022/05/31 04:55:29;;;;;;;4.32;2.75;;;;;;;16.33;100.00;91084.66;5070648;28;20032;-70
2022/05/31 04:57:54;;;;;;;3.20;2.63;;;;;;;16.43;100.00;91089.56;5070399;28;20074;-70
2022/05/31 05:00:20;;;;;;;4.25;3.15;;;;;;;16.59;100.00;91083.47;5070637;28;20048;-70
2022/05/31 05:02:46;;;;;;;6.80;2.60;;;;;;;16.64;100.00;91089.38;5070619;28;20548;-69
2022/05/31 05:05:12;;;;;;;5.10;2.78;;;;;;;16.79;100.00;91090.59;5070491;28;20028;-70
2022/05/31 05:07:37;;;;;;;4.25;3.20;;;;;;;17.10;100.00;91083.72;5070400;28;20028;-69
2022/05/31 05:10:05;;;;;;;5.78;2.95;;;;;;;17.25;100.00;91082.97;5070538;28;20108;-69
2022/05/31 05:12:30;;;;;;;4.32;2.95;;;;;;;17.36;100.00;91092.09;5070538;28;20029;-69
2022/05/31 05:14:56;;;;;;;5.10;3.00;;;;;;;17.42;100.00;91090.72;5070145;28;20024;-69
2022/05/31 05:17:25;;;;;;;3.47;2.97;;;;;;;17.62;100.00;91096.97;5071520;28;20032;-69
2022/05/31 05:19:51;;;;;;;3.97;3.30;;;;;;;17.70;100.00;91089.91;5074150;28;20039;-69
2022/05/31 05:22:16;;;;;;;4.65;3.28;;;;;;;17.87;100.00;91097.59;5073914;28;20100;-69
2022/05/31 05:24:42;;;;;;;5.20;2.72;;;;;;;17.83;100.00;91089.47;5073961;28;20466;-69
2022/05/31 05:27:07;;;;;;;5.25;2.97;;;;;;;17.90;100.00;91094.22;5073811;28;20024;-69
2022/05/31 05:32:17;;;;;;;3.75;2.63;;;;;;;18.38;100.00;91094.91;5073803;28;20036;-69
2022/05/31 05:34:43;;;;;;;5.70;3.03;;;;;;;18.60;100.00;91096.16;5073719;28;20024;-69
2022/05/31 05:37:08;;;;;;;3.63;3.25;;;;;;;18.89;100.00;91094.84;5073551;28;20033;-69
2022/05/31 05:39:34;;;;;;;4.28;3.03;;;;;;;21.76;94.68;91089.50;5073566;28;20498;-69
2022/05/31 05:42:02;;;;;;;3.35;2.90;;;;;;;25.00;67.71;91101.59;5073536;28;20037;-69
2022/05/31 05:44:27;;;;;;;3.97;2.65;;;;;;;28.05;55.88;91095.66;5073539;28;20031;-69
2022/05/31 05:46:52;;;;;;;4.10;2.95;;;;;;;29.41;50.51;91101.69;5073488;28;20095;-69
2022/05/31 05:49:18;;;;;;;4.07;2.88;;;;;;;31.27;45.92;91102.69;5073319;28;20409;-69
2022/05/31 05:51:45;;;;;;;4.15;2.47;;;;;;;32.85;41.85;91094.22;5073361;28;20020;-67
2022/05/31 05:54:11;;;;;;;4.38;2.45;;;;;;;33.89;39.67;91099.75;5073466;28;20102;-67
2022/05/31 05:56:37;;;;;;;5.18;2.70;;;;;;;32.48;41.30;91096.50;5073115;28;20501;-68
2022/05/31 05:59:02;;;;;;;3.38;3.08;;;;;;;32.15;42.52;91097.88;5072918;28;20052;-68
2022/05/31 06:01:33;;;;;;;5.10;2.50;;;;;;;33.92;40.84;91096.09;5073073;28;20558;-68
2022/05/31 06:04:06;;;;;;;2.67;2.38;;;;;;;34.01;38.48;91098.16;5073191;28;20038;-68
2022/05/31 06:06:33;;;;;;;3.35;2.45;;;;;;;34.29;38.13;91112.88;5073222;28;20028;-68
2022/05/31 06:09:09;;;;;;;4.10;2.95;;;;;;;35.12;36.89;91100.97;5072999;28;20032;-68
2022/05/31 06:11:36;;;;;;;4.50;2.45;;;;;;;35.05;36.83;91106.81;5073104;28;20041;-69
2022/05/31 06:14:23;;;;;;;3.50;2.53;;;;;;;37.02;34.26;91099.72;5073049;28;20506;-69
2022/05/31 06:16:54;;;;;;;3.10;2.80;;;;;;;38.19;33.28;91093.06;5072981;28;20525;-68
2022/05/31 06:19:24;;;;;;;4.63;3.10;;;;;;;37.62;34.05;91096.00;5072808;28;20119;-64
2022/05/31 06:21:51;;;;;;;5.38;3.35;;;;;;;35.97;34.69;91097.38;5072931;28;20044;-65
2022/05/31 06:24:18;;;;;;;3.13;2.80;;;;;;;36.42;35.24;91093.00;5072710;28;20036;-65
2022/05/31 06:26:44;;;;;;;5.80;3.42;;;;;;;36.58;34.40;91089.88;5072734;28;20035;-66
2022/05/31 06:29:09;;;;;;;4.82;3.80;;;;;;;36.73;34.22;91086.44;5071638;28;20044;-67
2022/05/31 06:31:35;;;;;;;3.53;3.22;;;;;;;37.59;32.59;91086.59;5072669;28;20036;-67
2022/05/31 06:34:00;;;;;;;3.10;2.75;;;;;;;36.88;33.72;91081.75;5072604;28;20142;-68
2022/05/31 06:36:26;;;;;;;4.13;2.70;;;;;;;37.57;33.00;91091.88;5072504;28;20036;-68
2022/05/31 06:38:52;;;;;;;6.20;3.80;;;;;;;37.97;32.12;91087.84;5072312;28;20040;-66
2022/05/31 06:41:17;;;;;;;4.72;3.25;;;;;;;36.33;33.85;91090.28;5072229;28;20051;-66
2022/05/31 06:43:43;;;;;;;6.72;4.18;;;;;;;36.88;34.57;91087.31;5072462;28;20032;-66
2022/05/31 06:46:11;;;;;;;4.85;3.80;;;;;;;38.26;33.45;91090.69;5071878;28;20113;-66
2022/05/31 06:48:37;;;;;;;6.20;5.25;;;;;;;37.79;33.90;91094.34;5071591;28;20151;-65
2022/05/31 06:51:08;;;;;;;4.60;4.15;;;;;;;37.94;33.94;91094.38;5071428;28;20037;-66
2022/05/31 06:58:57;;;;;;;3.63;2.97;;;;;;;36.64;34.76;91086.47;5051986;28;20194;-66
2022/05/31 07:01:30;;;;;;;3.78;3.05;;;;;;;37.79;34.69;91082.47;5061842;28;20036;-67
2022/05/31 07:03:56;;;;;;;4.78;2.90;;;;;;;36.63;34.91;91084.94;5072010;28;20033;-67
2022/05/31 07:06:22;;;;;;;4.85;2.80;;;;;;;36.64;34.11;91089.25;5071958;28;20044;-65
2022/05/31 07:08:47;;;;;;;4.72;2.83;;;;;;;38.23;34.00;91090.91;5071888;28;20516;-66
2022/05/31 07:11:12;;;;;;;3.97;2.85;;;;;;;37.01;34.73;91087.88;5071791;28;20502;-65
2022/05/31 07:13:38;;;;;;;2.75;2.50;;;;;;;37.33;33.81;91091.09;5071891;28;20410;-65
2022/05/31 07:16:04;;;;;;;3.10;2.72;;;;;;;38.83;32.60;91090.41;5071845;28;20796;-65
2022/05/31 07:18:29;;;;;;;4.03;3.63;;;;;;;39.45;30.89;91094.88;5071605;28;20125;-66
2022/05/31 07:20:55;;;;;;;4.05;3.25;;;;;;;37.35;34.42;91092.16;5071800;28;20474;-65
2022/05/31 07:23:21;;;;;;;4.50;2.70;;;;;;;35.34;35.73;91087.00;5071078;28;20129;-66
2022/05/31 07:25:46;;;;;;;3.28;2.22;;;;;;;34.55;37.86;91083.88;5070945;28;20794;-65
2022/05/31 07:28:12;;;;;;;4.63;2.75;;;;;;;35.76;36.93;91086.44;5071041;28;20557;-65
2022/05/31 07:30:38;;;;;;;15.57;4.15;;;;;;;35.75;35.75;91084.91;5071468;28;20032;-65
2022/05/31 07:33:03;;;;;;;2.95;2.28;;;;;;;36.11;35.29;91089.66;5070810;28;20024;-65
2022/05/31 07:35:29;;;;;;;4.15;2.58;;;;;;;39.11;31.50;91087.28;5071069;28;20032;-65
2022/05/31 07:37:55;;;;;;;2.70;2.50;;;;;;;40.29;29.64;91089.56;5070737;28;20462;-66
2022/05/31 07:40:21;;;;;;;7.93;3.55;;;;;;;41.93;28.64;91088.22;5051174;28;20094;-66
2022/05/31 07:42:46;;;;;;;4.22;2.65;;;;;;;39.90;29.80;91089.84;5051231;28;20029;-65
2022/05/31 07:45:12;;;;;;;4.63;2.33;;;;;;;40.07;30.73;91093.63;5051221;28;20106;-65
2022/05/31 07:47:38;;;;;;;5.78;3.03;;;;;;;37.39;32.10;91086.44;5051103;28;20033;-65
2022/05/31 07:50:04;;;;;;;7.75;3.25;;;;;;;36.80;34.23;91084.13;5051208;28;20102;-65
2022/05/31 07:52:29;;;;;;;2.42;2.10;;;;;;;34.96;34.72;91087.41;5051217;28;20505;-65
2022/05/31 07:54:55;;;;;;;3.30;2.20;;;;;;;34.30;37.35;91086.81;5049862;28;20036;-65
2022/05/31 08:00:05;;;;;;;12.75;11.45;;;;;;;38.43;31.86;91084.66;5047303;28;20140;-68
2022/05/31 08:02:31;;;;;;;2.90;2.15;;;;;;;38.93;29.87;91080.69;5050963;28;20020;-67
2022/05/31 08:04:56;;;;;;;2.90;2.38;;;;;;;39.18;30.36;91084.13;5050891;28;20025;-67
2022/05/31 08:07:22;;;;;;;3.03;2.45;;;;;;;36.49;34.31;91080.84;5050627;28;20040;-65
2022/05/31 08:09:47;;;;;;;2.30;2.10;;;;;;;34.48;37.49;91084.91;5051088;28;20082;-67
2022/05/31 08:12:13;;;;;;;2.58;2.35;;;;;;;33.67;36.56;91085.16;5059159;28;20074;-69
2022/05/31 08:14:39;;;;;;;3.20;2.03;;;;;;;36.45;34.19;91075.47;5062125;28;20475;-68
2022/05/31 08:17:04;;;;;;;2.60;2.40;;;;;;;36.97;33.55;91078.97;5070526;28;20032;-68
2022/05/31 08:19:31;;;;;;;8.82;3.20;;;;;;;38.79;31.19;91084.25;5052142;28;20067;-68
2022/05/31 08:21:57;;;;;;;2.47;2.03;;;;;;;36.57;33.63;91079.25;5050595;28;20059;-68
2022/05/31 08:24:23;;;;;;;2.58;2.25;;;;;;;36.39;34.31;91079.31;5050650;28;20082;-68
2022/05/31 08:26:49;;;;;;;4.88;3.20;;;;;;;38.37;31.74;91073.47;5050418;28;20028;-68
2022/05/31 08:29:15;;;;;;;2.65;2.30;;;;;;;35.60;34.36;91070.91;5050255;28;20418;-69
2022/05/31 08:31:41;;;;;;;3.15;2.60;;;;;;;34.91;35.83;91074.19;5068959;28;20056;-69
2022/05/31 08:34:07;;;;;;;2.60;2.25;;;;;;;36.37;33.01;91073.47;5070398;28;20060;-68
2022/05/31 08:36:33;;;;;;;7.57;2.72;;;;;;;36.81;32.48;91065.47;5070513;28;20033;-70
2022/05/31 08:38:58;;;;;;;2.15;1.95;;;;;;;32.46;36.92;91060.38;5070422;28;20116;-69
2022/05/31 08:41:28;;;;;;;2.80;2.13;;;;;;;31.47;39.55;91058.53;5070518;28;20024;-68
2022/05/31 08:44:28;;;;;;;2.15;1.85;;;;;;;33.96;35.49;91062.84;5070071;28;20145;-68
2022/05/31 08:47:26;;;;;;;2.40;1.90;;;;;;;33.50;35.93;91056.97;5052833;28;20048;-69
2022/05/31 08:53:04;;;;;;;1.88;1.77;;;;;;;32.18;36.73;91055.72;5052410;28;20458;-67
2022/05/31 08:58:26;;;;;;;3.90;2.20;;;;;;;36.62;31.60;91061.22;5053530;28;20043;-68
2022/05/31 09:00:54;;;;;;;2.08;1.65;;;;;;;36.93;31.65;91064.50;5063918;28;20454;-70
2022/05/31 09:03:24;;;;;;;4.10;1.80;;;;;;;37.79;32.46;91065.81;5073361;28;20037;-70
2022/05/31 09:05:57;;;;;;;3.55;2.65;;;;;;;37.05;31.98;91055.16;5054349;28;20047;-70
2022/05/31 09:08:38;;;;;;;3.33;2.50;;;;;;;31.28;39.02;91060.22;5053850;28;20021;-70
2022/05/31 09:11:13;;;;;;;2.67;2.22;;;;;;;28.08;45.43;91061.22;5054008;28;20107;-70
2022/05/31 09:13:41;;;;;;;2.92;2.03;;;;;;;28.76;46.96;91063.72;5065516;28;20405;-71
2022/05/31 09:16:28;;;;;;;2.70;2.22;;;;;;;33.28;37.63;91052.16;5053853;28;20411;-70
2022/05/31 09:18:59;;;;;;;2.65;1.95;;;;;;;34.98;35.79;91054.53;5064225;28;20076;-71
2022/05/31 09:21:34;;;;;;;3.50;1.80;;;;;;;35.26;36.41;91050.59;5073648;28;20040;-69
2022/05/31 09:24:02;;;;;;;2.13;1.90;;;;;;;36.99;33.01;91045.19;5073628;28;20094;-69
2022/05/31 09:26:37;;;;;;;2.83;2.55;;;;;;;36.33;33.05;91048.72;5073632;28;20120;-70
2022/05/31 09:29:11;;;;;;;2.10;1.73;;;;;;;36.99;34.51;91051.50;5073050;28;20029;-71
2022/05/31 09:31:49;;;;;;;2.10;1.90;;;;;;;34.37;35.29;91048.66;5058340;28;20053;-69
2022/05/31 09:34:22;;;;;;;4.13;2.08;;;;;;;33.90;35.04;91048.84;5053535;28;20037;-71
2022/05/31 09:37:17;;;;;;;3.40;2.60;;;;;;;34.16;36.27;91047.47;5053352;28;20025;-71
2022/05/31 09:39:52;;;;;;;2.47;2.03;;;;;;;35.89;34.27;91035.25;5029784;28;20067;-69
2022/05/31 09:42:23;;;;;;;3.88;2.10;;;;;;;37.83;32.36;91041.38;5068721;28;20418;-71
2022/05/31 09:45:07;;;;;;;6.32;3.70;;;;;;;37.75;31.47;91038.22;5063570;28;20020;-70
2022/05/31 09:47:32;;;;;;;2.88;2.65;;;;;;;39.95;28.90;91041.81;5053225;28;20025;-70
2022/05/31 09:49:58;;;;;;;6.07;3.88;;;;;;;34.03;34.58;91040.47;5054325;28;20036;-69
2022/05/31 09:52:45;;;;;;;4.80;2.20;;;;;;;34.01;35.26;91037.41;5073318;28;20020;-69
2022/05/31 09:58:27;;;;;;;2.40;2.20;;;;;;;37.67;31.37;91037.78;5072686;28;20120;-68
2022/05/31 10:01:09;;;;;;;3.58;2.55;;;;;;;34.97;34.52;91039.19;5057681;28;20056;-71
2022/05/31 10:03:46;;;;;;;2.43;2.23;;;;;;;36.06;34.65;91037.66;5072923;28;20028;-69
2022/05/31 10:06:20;;;;;;;5.95;2.25;;;;;;;38.66;32.31;91042.09;5087604;28;20024;-66
2022/05/31 10:08:48;;;;;;;2.47;2.28;;;;;;;37.78;30.66;91028.16;5075087;28;20020;-66
2022/05/31 10:11:22;;;;;;;3.08;1.95;;;;;;;38.24;30.63;91037.63;5093282;28;20024;-67
2022/05/31 10:14:04;;;;;;;1.98;1.45;;;;;;;39.33;28.56;91036.75;5087859;28;20024;-67
2022/05/31 10:16:35;;;;;;;1.65;1.55;;;;;;;36.02;31.18;91034.31;5058787;28;20107;-67
2022/05/31 10:19:04;;;;;;;3.20;2.28;;;;;;;34.03;34.77;91032.19;5062757;28;20095;-66
2022/05/31 10:21:40;;;;;;;3.05;1.80;;;;;;;34.26;34.02;91019.91;5064800;28;20071;-66
2022/05/31 10:24:19;;;;;;;3.90;2.00;;;;;;;35.05;33.79;91012.78;5072939;28;20453;-66
2022/05/31 10:27:02;;;;;;;2.72;2.22;;;;;;;36.83;33.22;91021.41;5072652;28;20028;-66
2022/05/31 10:29:40;;;;;;;2.10;1.95;;;;;;;38.74;29.25;91026.53;5072763;28;20024;-66
2022/05/31 10:32:23;;;;;;;3.63;2.58;;;;;;;38.41;30.58;91015.66;5072804;28;20056;-66
2022/05/31 10:34:48;;;;;;;5.10;2.17;;;;;;;38.22;30.96;91012.31;5072759;28;20024;-66
2022/05/31 10:37:32;;;;;;;2.88;2.28;;;;;;;33.91;35.46;91017.25;5072420;28;20035;-66
2022/05/31 10:40:13;;;;;;;4.97;2.20;;;;;;;32.25;37.00;91008.69;5072563;28;20029;-66
2022/05/31 10:42:43;;;;;;;4.35;2.30;;;;;;;31.10;40.00;91010.44;5072507;28;20048;-66
2022/05/31 10:45:26;;;;;;;3.42;2.63;;;;;;;31.68;38.51;91006.88;5072457;28;20028;-65
2022/05/31 10:47:55;;;;;;;2.58;2.38;;;;;;;33.78;36.13;91011.03;5072286;28;20116;-65
2022/05/31 10:50:33;;;;;;;2.70;2.33;;;;;;;32.02;37.49;91000.75;5072330;28;20032;-66
2022/05/31 10:53:12;;;;;;;2.85;1.80;;;;;;;34.18;37.73;91000.81;5072276;28;20029;-65
2022/05/31 10:55:42;;;;;;;2.70;1.95;;;;;;;33.53;35.70;90998.16;5054149;28;20486;-65
2022/05/31 10:58:32;;;;;;;3.33;2.00;;;;;;;35.60;34.22;90990.66;5071794;28;20033;-66
2022/05/31 11:01:13;;;;;;;2.90;2.30;;;;;;;34.75;33.20;90990.28;5072031;28;20112;-66
2022/05/31 11:04:00;;;;;;;2.05;1.80;;;;;;;31.51;37.22;90995.94;5072042;28;20024;-66
2022/05/31 11:06:38;;;;;;;1.80;1.70;;;;;;;31.65;38.26;90988.50;5071979;28;20547;-66
2022/05/31 11:12:17;;;;;;;5.65;2.25;;;;;;;34.06;34.81;90987.88;5071936;28;20035;-66
2022/05/31 11:15:10;;;;;;;1.80;1.70;;;;;;;33.11;36.69;90984.63;5071335;28;20500;-66
2022/05/31 11:17:54;;;;;;;1.90;1.80;;;;;;;31.37;37.46;90990.09;5071552;28;20028;-66
2022/05/31 11:20:32;;;;;;;3.55;2.28;;;;;;;29.14;41.31;90986.72;5071582;28;20032;-66
2022/05/31 11:23:33;;;;;;;2.63;2.15;;;;;;;28.63;42.13;90988.84;5071589;28;20024;-66
2022/05/31 11:25:58;;;;;;;2.45;1.90;;;;;;;28.02;44.17;90987.09;5071627;28;20082;-65
2022/05/31 11:29:02;;;;;;;1.93;1.77;;;;;;;28.48;43.66;90976.59;5071576;28;20064;-65
2022/05/31 11:31:47;;;;;;;3.13;2.22;;;;;;;30.64;39.50;90986.94;5037674;28;20282;-65
2022/05/31 11:34:24;;;;;;;5.72;2.50;;;;;;;31.23;37.25;90992.03;5071503;28;20075;-65
2022/05/31 11:37:00;;;;;;;8.35;2.22;;;;;;;29.24;40.05;90999.44;5071317;28;20033;-65
